Time;durP1;ratioP1;P1;durP2;ratioP2;P2;SDS_P1;SDS_P2;PMS_P1;PMS_P2;Temp;Humidity;BMP_temperature;BMP_pressure;BME280_temperature;BME280_humidity;BME280_pressure;Samples;Min_cycle;Max_cycle;Signal;HPM_P1;HPM_P2
2021/12/08 00:00:59;;;;;;;10.32;5.53;;;;;;;1.45;81.60;97373.91;6132855;23;20009;-87
2021/12/08 00:03:28;;;;;;;9.88;6.30;;;;;;;1.60;81.20;97388.41;6133564;23;20020;-87
2021/12/08 00:05:54;;;;;;;7.45;5.70;;;;;;;1.62;81.49;97389.03;6158351;23;20087;-87
2021/12/08 00:08:22;;;;;;;8.60;5.15;;;;;;;1.61;80.94;97379.50;6158915;23;20383;-87
2021/12/08 00:13:17;;;;;;;7.90;5.13;;;;;;;1.62;81.63;97376.66;6135962;23;20013;-87
2021/12/08 00:15:47;;;;;;;6.80;4.50;;;;;;;1.63;81.06;97365.13;6159055;23;20156;-87
2021/12/08 00:18:16;;;;;;;9.15;5.13;;;;;;;1.04;80.96;97276.72;6160477;23;20075;-87
2021/12/08 00:20:43;;;;;;;11.13;5.63;;;;;;;1.58;81.12;97365.00;6160687;23;20005;-87
2021/12/08 00:23:10;;;;;;;10.20;4.95;;;;;;;1.62;81.09;97371.38;6137934;23;20032;-87
2021/12/08 00:25:36;;;;;;;9.07;5.65;;;;;;;1.64;81.41;97360.66;6161678;23;20005;-88
2021/12/08 00:28:04;;;;;;;8.55;5.00;;;;;;;1.56;81.38;97353.09;6136084;23;20058;-88
2021/12/08 00:30:30;;;;;;;8.15;4.75;;;;;;;1.57;81.20;97349.44;6111916;23;20051;-87
2021/12/08 00:32:58;;;;;;;7.32;5.68;;;;;;;1.63;81.67;97359.06;6160174;23;20001;-88
2021/12/08 00:35:24;;;;;;;9.48;4.38;;;;;;;1.66;81.60;97345.47;6135754;23;20087;-88
2021/12/08 00:37:50;;;;;;;4.80;4.25;;;;;;;1.64;81.44;97344.88;6160393;23;20009;-87
2021/12/08 00:40:17;;;;;;;8.55;4.18;;;;;;;1.65;81.12;97335.94;6160574;23;20019;-87
2021/12/08 00:42:45;;;;;;;9.48;4.35;;;;;;;1.63;81.33;97338.81;6135502;23;20032;-87
2021/12/08 00:45:14;;;;;;;6.72;3.80;;;;;;;1.29;80.85;97273.91;6160331;23;20379;-87
2021/12/08 00:47:40;;;;;;;6.13;4.05;;;;;;;1.62;81.42;97337.22;6160777;23;20446;-87
2021/12/08 00:50:09;;;;;;;6.63;3.55;;;;;;;1.22;80.97;97278.47;6162199;23;20001;-87
2021/12/08 00:52:35;;;;;;;7.97;4.30;;;;;;;1.66;81.23;97340.19;6189489;23;20001;-87
2021/12/08 00:55:02;;;;;;;4.78;3.78;;;;;;;1.40;81.09;97305.44;6161837;23;20013;-87
2021/12/08 00:57:28;;;;;;;10.55;3.92;;;;;;;1.59;81.28;97335.06;6114529;23;20448;-87
2021/12/08 00:59:53;;;;;;;5.95;3.50;;;;;;;0.94;81.52;97237.06;6161814;23;20005;-87
2021/12/08 01:02:24;;;;;;;9.80;4.25;;;;;;;1.40;81.13;97292.28;6137969;23;20336;-85
2021/12/08 01:04:49;;;;;;;6.00;3.50;;;;;;;1.63;81.43;97317.78;6190541;23;20004;-85
2021/12/08 01:07:14;;;;;;;9.30;4.10;;;;;;;1.62;81.57;97310.91;6138665;23;20068;-87
2021/12/08 01:09:40;;;;;;;4.28;3.72;;;;;;;1.40;81.61;97273.06;6137811;23;20013;-87
2021/12/08 01:12:06;;;;;;;8.80;3.78;;;;;;;1.66;81.73;97312.06;6160055;23;20408;-87
2021/12/08 01:14:33;;;;;;;8.00;4.20;;;;;;;1.66;81.32;97295.50;6160915;23;20020;-86
2021/12/08 01:16:59;;;;;;;5.55;3.85;;;;;;;1.65;81.67;97289.44;6134196;23;20012;-87
2021/12/08 01:19:25;;;;;;;6.03;3.63;;;;;;;1.68;81.63;97294.25;6160027;23;20005;-86
2021/12/08 01:21:51;;;;;;;7.85;4.40;;;;;;;1.62;81.88;97284.63;6159535;23;20020;-87
2021/12/08 01:24:16;;;;;;;6.82;3.45;;;;;;;1.71;81.24;97287.69;6134483;23;20008;-86
2021/12/08 01:26:42;;;;;;;11.73;4.82;;;;;;;1.69;81.64;97284.50;6134735;23;20429;-87
2021/12/08 01:29:09;;;;;;;7.07;4.50;;;;;;;1.51;81.08;97272.28;6110225;23;20009;-87
2021/12/08 01:31:39;;;;;;;9.27;4.68;;;;;;;1.70;81.53;97281.66;6135091;23;20348;-90
2021/12/08 01:34:05;;;;;;;5.63;3.78;;;;;;;1.68;81.50;97286.34;6188641;23;20005;-87
2021/12/08 01:36:30;;;;;;;7.85;4.30;;;;;;;1.72;81.38;97282.22;6136835;23;20063;-87
2021/12/08 01:38:56;;;;;;;9.63;4.95;;;;;;;1.62;81.61;97268.06;6135437;23;20000;-87
2021/12/08 01:41:23;;;;;;;13.57;4.22;;;;;;;1.65;82.04;97278.09;6158945;23;20005;-87
2021/12/08 01:46:36;;;;;;;9.15;4.60;;;;;;;1.71;81.77;97274.56;6186125;23;20068;-87
2021/12/08 01:49:03;;;;;;;9.32;4.40;;;;;;;1.76;81.62;97274.66;6158968;23;20024;-87
2021/12/08 01:51:29;;;;;;;8.60;4.50;;;;;;;1.64;81.03;97255.50;6159345;23;20075;-87
2021/12/08 01:54:01;;;;;;;6.57;4.60;;;;;;;1.77;81.25;97268.38;6159227;23;20001;-87
2021/12/08 01:56:26;;;;;;;8.75;5.13;;;;;;;1.71;81.21;97261.41;6159290;23;20017;-87
2021/12/08 01:58:52;;;;;;;7.18;4.53;;;;;;;1.71;81.09;97241.16;6134037;23;20090;-87
2021/12/08 02:01:22;;;;;;;8.60;4.38;;;;;;;1.78;81.25;97231.34;6159457;23;20012;-87
2021/12/08 02:03:49;;;;;;;5.20;4.25;;;;;;;1.79;81.30;97230.28;6185684;23;20005;-87
2021/12/08 02:06:17;;;;;;;9.75;5.13;;;;;;;1.62;80.90;97204.97;6159488;23;20013;-87
2021/12/08 02:08:43;;;;;;;7.93;4.88;;;;;;;1.83;81.58;97241.16;6159003;23;20001;-87
2021/12/08 02:11:08;;;;;;;6.35;4.18;;;;;;;1.72;81.62;97229.63;6158817;23;20059;-87
2021/12/08 02:13:38;;;;;;;10.70;4.13;;;;;;;1.75;81.25;97238.91;6159083;23;20005;-87
2021/12/08 02:16:08;;;;;;;9.63;3.55;;;;;;;1.73;80.90;97230.41;6134680;23;20020;-87
2021/12/08 02:18:35;;;;;;;6.03;3.90;;;;;;;1.80;81.12;97236.34;6158790;23;20011;-87
2021/12/08 02:21:04;;;;;;;5.80;4.15;;;;;;;1.60;80.88;97196.47;6134208;23;20021;-87
2021/12/08 02:23:31;;;;;;;5.80;3.97;;;;;;;1.82;81.05;97221.94;6134657;23;20232;-87
2021/12/08 02:25:57;;;;;;;8.70;3.83;;;;;;;1.82;80.94;97235.09;6158027;23;20009;-87
2021/12/08 02:28:23;;;;;;;6.25;3.95;;;;;;;1.54;81.20;97203.47;6158374;23;20420;-87
2021/12/08 02:30:54;;;;;;;6.47;3.85;;;;;;;1.81;80.93;97237.97;6158673;23;20024;-87
2021/12/08 02:47:16;;;;;;;7.97;4.88;;;;;;;1.74;81.14;97222.31;6185095;23;20015;-85
2021/12/08 02:49:43;;;;;;;5.53;3.85;;;;;;;1.79;81.32;97226.88;6161114;23;20065;-85
2021/12/08 02:52:11;;;;;;;10.13;5.35;;;;;;;1.76;81.55;97219.44;6159086;23;19997;-85
2021/12/08 02:54:42;;;;;;;7.45;3.63;;;;;;;1.80;81.51;97218.75;6136024;23;20005;-85
2021/12/08 02:57:09;;;;;;;7.97;4.78;;;;;;;1.84;81.12;97219.06;6158740;23;20009;-85
2021/12/08 02:59:36;;;;;;;8.00;4.60;;;;;;;1.75;81.21;97204.72;6158862;23;20017;-89
2021/12/08 03:02:02;;;;;;;10.32;3.63;;;;;;;1.68;80.92;97190.88;6134059;23;20021;-90
2021/12/08 03:04:28;;;;;;;7.50;3.58;;;;;;;1.79;81.33;97200.56;6112270;23;20067;-89
2021/12/08 03:06:54;;;;;;;7.97;3.63;;;;;;;1.61;81.51;97180.50;6160745;23;20017;-90
2021/12/08 03:09:19;;;;;;;5.40;3.65;;;;;;;1.83;81.03;97209.59;6158551;23;20044;-88
2021/12/08 03:11:51;;;;;;;7.35;4.25;;;;;;;1.87;81.41;97208.91;6133394;23;20035;-87
2021/12/08 03:14:17;;;;;;;9.93;3.95;;;;;;;1.74;80.86;97187.31;6134059;23;20016;-88
2021/12/08 03:16:47;;;;;;;4.90;3.17;;;;;;;1.88;81.31;97207.06;6114208;23;20009;-87
2021/12/08 03:19:12;;;;;;;10.32;3.97;;;;;;;1.88;80.76;97204.44;6138488;23;20001;-87
2021/12/08 03:21:38;;;;;;;6.68;4.10;;;;;;;1.61;81.25;97150.78;6188844;23;20028;-87
2021/12/08 03:26:34;;;;;;;6.38;3.30;;;;;;;1.91;80.74;97193.44;6190981;23;20001;-86
2021/12/08 03:29:14;;;;;;;6.55;3.17;;;;;;;1.89;81.11;97193.69;6190800;23;20012;-86
2021/12/08 03:31:43;;;;;;;6.53;3.45;;;;;;;1.68;80.89;97167.22;6165837;23;20356;-87
2021/12/08 03:34:08;;;;;;;4.38;3.28;;;;;;;1.87;80.80;97194.94;6140506;23;20100;-86
2021/12/08 03:36:33;;;;;;;4.38;3.25;;;;;;;1.90;81.23;97194.50;6138898;23;20008;-87
2021/12/08 03:39:01;;;;;;;6.47;3.50;;;;;;;1.92;81.04;97193.19;6162041;23;20005;-87
2021/12/08 03:41:31;;;;;;;9.27;4.28;;;;;;;1.93;80.91;97188.75;6162577;23;20009;-87
2021/12/08 03:43:57;;;;;;;5.05;3.33;;;;;;;1.80;80.85;97176.66;6140210;23;20011;-87
2021/12/08 03:46:26;;;;;;;5.55;4.18;;;;;;;1.87;81.22;97176.53;6162776;23;20095;-87
2021/12/08 03:48:53;;;;;;;9.77;3.72;;;;;;;1.94;80.80;97185.09;6162649;23;20008;-87
2021/12/08 03:51:19;;;;;;;6.78;3.78;;;;;;;1.98;80.79;97196.75;6162688;23;20009;-87
2021/12/08 03:53:46;;;;;;;4.78;3.33;;;;;;;1.97;81.08;97192.50;6162205;23;20005;-87
2021/12/08 03:56:12;;;;;;;4.18;3.15;;;;;;;1.98;80.78;97196.75;6136624;23;20095;-88
2021/12/08 03:58:37;;;;;;;5.97;3.47;;;;;;;1.89;80.11;97191.06;6161815;23;20004;-87
2021/12/08 04:01:06;;;;;;;5.57;3.70;;;;;;;1.78;80.45;97170.84;6137152;23;20005;-87
2021/12/08 04:03:34;;;;;;;5.30;3.42;;;;;;;1.96;80.99;97202.25;6161655;23;20013;-87
2021/12/08 04:06:06;;;;;;;7.70;3.80;;;;;;;1.97;80.71;97203.81;6136520;23;20016;-87
2021/12/08 04:08:42;;;;;;;8.18;3.70;;;;;;;1.87;80.57;97195.75;6161812;23;20024;-87
2021/12/08 04:11:09;;;;;;;5.88;3.80;;;;;;;1.97;81.46;97205.66;6116711;23;20044;-86
2021/12/08 04:13:48;;;;;;;6.65;3.75;;;;;;;1.97;81.03;97213.53;6113963;23;20009;-86
2021/12/08 04:16:18;;;;;;;5.70;4.25;;;;;;;1.82;80.84;97198.28;6114165;23;20072;-86
2021/12/08 04:18:45;;;;;;;10.55;4.30;;;;;;;1.90;80.48;97212.91;6160315;23;20001;-87
2021/12/08 04:21:12;;;;;;;9.50;4.00;;;;;;;1.97;81.16;97226.69;6117647;23;20013;-88
2021/12/08 04:23:40;;;;;;;8.18;3.58;;;;;;;1.99;80.87;97222.00;6171274;23;20037;-88
2021/12/08 04:26:17;;;;;;;5.93;3.80;;;;;;;1.92;80.92;97205.56;6119495;23;20409;-87
2021/12/08 04:28:43;;;;;;;5.72;3.70;;;;;;;1.98;80.64;97215.16;6168848;23;20005;-87
2021/12/08 04:31:20;;;;;;;9.88;4.13;;;;;;;1.83;80.87;97196.44;6162644;23;20016;-85
2021/12/08 04:33:54;;;;;;;8.45;4.03;;;;;;;1.86;80.83;97196.75;6167442;23;20008;-85
2021/12/08 04:36:21;;;;;;;5.13;3.47;;;;;;;1.61;80.81;97163.91;6193286;23;20001;-85
2021/12/08 04:38:53;;;;;;;5.40;3.35;;;;;;;1.60;80.77;97157.06;6166970;23;20005;-85
2021/12/08 04:41:29;;;;;;;6.57;4.50;;;;;;;1.97;81.50;97213.53;6140350;23;20037;-88
2021/12/08 04:50:07;;;;;;;5.55;3.75;;;;;;;1.73;81.03;97194.41;6138891;23;20056;-87
2021/12/08 04:52:29;;;;;;;7.40;4.05;;;;;;;1.89;80.97;97216.53;6161870;23;20009;-86
2021/12/08 05:08:18;;;;;;;6.22;4.32;;;;;;;1.94;81.66;97245.59;6171101;23;20009;-87
2021/12/08 05:10:46;;;;;;;6.93;4.53;;;;;;;1.87;81.42;97237.84;6135803;23;20439;-87
2021/12/08 05:13:15;;;;;;;7.20;5.07;;;;;;;1.96;81.66;97248.78;6135178;23;20020;-86
2021/12/08 05:15:52;;;;;;;6.10;3.97;;;;;;;1.97;81.60;97259.06;6109852;23;20071;-87
2021/12/08 05:18:31;;;;;;;5.80;4.28;;;;;;;1.90;81.15;97241.84;6134739;23;20005;-87
2021/12/08 05:21:12;;;;;;;6.60;4.82;;;;;;;1.98;81.21;97249.34;6186206;23;20027;-87
2021/12/08 05:23:48;;;;;;;9.18;4.55;;;;;;;1.95;81.54;97247.19;6160272;23;20440;-87
2021/12/08 05:26:24;;;;;;;6.95;4.50;;;;;;;1.62;81.93;97195.22;6159731;23;20032;-88
2021/12/08 05:29:00;;;;;;;6.60;4.00;;;;;;;1.98;81.73;97244.09;6185004;23;20095;-87
2021/12/08 05:31:29;;;;;;;9.07;4.97;;;;;;;1.96;81.20;97248.78;6158186;23;20077;-88
2021/12/08 05:33:58;;;;;;;4.32;3.92;;;;;;;1.90;81.54;97242.59;6159699;23;20012;-88
2021/12/08 05:36:24;;;;;;;6.50;4.32;;;;;;;1.94;81.75;97240.34;6110071;23;20005;-88
2021/12/08 05:38:53;;;;;;;6.22;4.60;;;;;;;1.99;81.89;97253.56;6133897;23;20012;-87
2021/12/08 05:41:29;;;;;;;5.57;4.63;;;;;;;1.99;81.74;97249.13;6184774;23;20063;-87
2021/12/08 05:43:55;;;;;;;7.53;5.80;;;;;;;1.89;81.92;97224.44;6132778;23;20008;-86
2021/12/08 05:46:24;;;;;;;6.85;4.72;;;;;;;1.91;81.82;97227.63;6188346;23;20053;-87
2021/12/08 05:48:50;;;;;;;5.18;4.45;;;;;;;1.99;81.75;97237.78;6136308;23;20006;-87
2021/12/08 05:51:29;;;;;;;5.95;5.13;;;;;;;1.99;82.13;97243.84;6161331;23;20355;-87
2021/12/08 05:53:59;;;;;;;6.57;4.93;;;;;;;1.82;81.57;97218.50;6136837;23;20012;-86
2021/12/08 05:56:25;;;;;;;6.47;4.40;;;;;;;1.93;81.61;97239.53;6192441;23;20001;-87
2021/12/08 05:58:54;;;;;;;6.22;4.72;;;;;;;1.74;81.92;97203.91;6141696;23;20066;-86
2021/12/08 06:01:22;;;;;;;6.65;4.78;;;;;;;2.01;81.94;97251.53;6164428;23;20013;-87
2021/12/08 06:03:49;;;;;;;7.22;4.68;;;;;;;1.66;81.82;97196.34;6162282;23;20084;-86
2021/12/08 06:06:17;;;;;;;9.35;4.53;;;;;;;1.84;81.29;97224.31;6188104;23;20003;-86
2021/12/08 06:08:43;;;;;;;8.60;5.13;;;;;;;1.93;81.51;97239.53;6163790;23;20001;-87
2021/12/08 06:11:10;;;;;;;6.82;5.00;;;;;;;2.01;81.89;97257.56;6161412;23;20012;-86
2021/12/08 06:13:37;;;;;;;8.35;4.95;;;;;;;1.82;81.75;97210.63;6188851;23;20340;-86
2021/12/08 06:16:04;;;;;;;6.93;5.75;;;;;;;2.03;81.77;97244.19;6135967;23;20040;-87
2021/12/08 06:18:37;;;;;;;9.82;5.25;;;;;;;1.85;81.47;97210.16;6161523;23;20060;-86
2021/12/08 06:21:08;;;;;;;6.60;5.57;;;;;;;2.02;82.12;97240.75;6138837;23;20012;-87
2021/12/08 06:23:34;;;;;;;6.78;5.40;;;;;;;1.78;81.56;97199.78;6111256;23;20009;-88
2021/12/08 06:26:14;;;;;;;7.35;5.75;;;;;;;2.02;82.05;97235.50;6112681;23;20060;-87
2021/12/08 06:28:40;;;;;;;8.07;6.00;;;;;;;1.45;81.88;97149.66;6188189;23;20007;-88
2021/12/08 06:31:08;;;;;;;7.75;5.68;;;;;;;1.77;81.78;97206.06;6163697;23;20056;-88
2021/12/08 06:33:34;;;;;;;6.47;4.88;;;;;;;1.68;82.05;97183.81;6161557;23;20009;-86
2021/12/08 06:36:05;;;;;;;9.82;5.65;;;;;;;1.99;81.70;97235.97;6158459;23;20037;-88
2021/12/08 06:38:31;;;;;;;6.60;5.80;;;;;;;1.93;81.65;97221.13;6158687;23;20501;-87
2021/12/08 06:41:19;;;;;;;9.13;5.85;;;;;;;2.02;82.19;97232.06;6164536;23;20090;-89
2021/12/08 06:43:55;;;;;;;10.48;5.57;;;;;;;2.00;82.01;97236.75;6169112;23;20057;-88
2021/12/08 06:46:21;;;;;;;9.15;6.05;;;;;;;1.72;81.86;97192.00;6144609;23;20067;-86
2021/12/08 06:48:52;;;;;;;10.18;7.20;;;;;;;2.02;82.09;97246.03;6136362;23;20100;-87
2021/12/08 06:51:40;;;;;;;11.25;6.50;;;;;;;1.69;81.28;97206.41;6159013;23;20053;-88
2021/12/08 06:54:14;;;;;;;7.82;5.70;;;;;;;2.02;81.86;97256.56;6192953;23;20428;-88
2021/12/08 06:56:47;;;;;;;7.00;5.63;;;;;;;1.86;81.56;97222.25;6159245;23;20016;-89
2021/12/08 06:59:18;;;;;;;7.93;6.07;;;;;;;2.01;81.84;97252.31;6135376;23;20028;-89
2021/12/08 07:01:56;;;;;;;7.68;6.13;;;;;;;1.92;81.52;97229.25;6134788;23;20092;-89
2021/12/08 07:04:34;;;;;;;11.48;6.25;;;;;;;1.88;82.18;97228.13;6159788;23;20021;-88
2021/12/08 07:07:12;;;;;;;11.35;6.63;;;;;;;2.05;82.21;97257.91;6139277;23;20016;-84
2021/12/08 07:09:52;;;;;;;10.60;5.90;;;;;;;2.00;81.61;97253.34;6163429;23;20314;-84
2021/12/08 07:12:30;;;;;;;7.90;6.55;;;;;;;1.93;81.84;97243.97;6137626;23;20012;-85
2021/12/08 07:15:17;;;;;;;8.73;5.95;;;;;;;2.06;82.08;97262.94;6162913;23;20016;-85
2021/12/08 07:17:49;;;;;;;8.50;6.22;;;;;;;2.05;82.21;97263.19;6084309;23;20020;-86
2021/12/08 07:22:52;;;;;;;9.05;5.70;;;;;;;1.92;82.31;97240.53;6188528;23;20005;-86
2021/12/08 07:25:21;;;;;;;8.85;6.40;;;;;;;2.07;82.07;97264.56;6135284;23;20016;-87
2021/12/08 07:27:47;;;;;;;8.02;5.88;;;;;;;2.06;81.54;97275.28;6133987;23;20093;-87
2021/12/08 07:30:31;;;;;;;13.75;6.75;;;;;;;1.51;80.92;97193.41;6135211;23;20012;-90
2021/12/08 07:32:57;;;;;;;11.23;6.78;;;;;;;1.86;80.98;97246.75;6135373;23;20013;-89
2021/12/08 07:35:31;;;;;;;8.68;7.18;;;;;;;2.04;80.84;97269.47;6162725;23;20069;-89
2021/12/08 07:37:57;;;;;;;9.57;6.38;;;;;;;2.08;80.98;97279.28;6136740;23;20011;-91
2021/12/08 07:40:39;;;;;;;11.02;6.53;;;;;;;1.18;80.81;97141.47;6163810;23;20062;-91
2021/12/08 07:43:10;;;;;;;10.30;6.22;;;;;;;1.21;81.16;97146.28;6163155;23;20451;-92
2021/12/08 07:45:48;;;;;;;10.27;6.38;;;;;;;1.70;81.01;97212.50;6137921;23;20096;-91
2021/12/08 07:48:18;;;;;;;11.57;7.38;;;;;;;1.18;81.05;97141.47;6162212;23;20097;-92
2021/12/08 07:51:09;;;;;;;8.98;6.95;;;;;;;0.92;81.15;97115.69;6137508;23;20016;-92
2021/12/08 07:53:37;;;;;;;12.02;6.93;;;;;;;1.27;81.33;97170.81;6163190;23;20013;-91
2021/12/08 07:56:05;;;;;;;7.90;7.07;;;;;;;1.06;81.20;97121.50;6136876;23;20036;-92
2021/12/08 07:58:35;;;;;;;9.18;7.55;;;;;;;1.19;80.80;97137.03;6136169;23;20020;-91
2021/12/08 08:01:08;;;;;;;8.23;6.93;;;;;;;1.13;80.75;97127.44;6160247;23;20019;-92
2021/12/08 08:03:40;;;;;;;8.43;7.53;;;;;;;2.08;81.61;97260.88;6135816;23;20005;-92
2021/12/08 08:06:18;;;;;;;12.13;7.68;;;;;;;1.11;81.25;97103.25;6135848;23;20005;-92
2021/12/08 08:08:44;;;;;;;10.45;6.70;;;;;;;1.68;81.49;97202.22;6136195;23;20292;-91
2021/12/08 08:11:25;;;;;;;9.50;6.82;;;;;;;1.50;81.74;97203.16;6136251;23;20439;-92
2021/12/08 08:13:53;;;;;;;8.52;7.10;;;;;;;0.95;81.23;97115.25;6138987;23;20454;-91
2021/12/08 08:16:23;;;;;;;9.07;7.28;;;;;;;1.32;81.34;97178.81;6161407;23;20009;-91
2021/12/08 08:18:57;;;;;;;9.07;6.78;;;;;;;0.96;81.47;97123.94;6145430;23;19985;-94
2021/12/08 08:21:30;;;;;;;9.55;6.82;;;;;;;1.05;81.50;97136.47;6182785;23;20020;-93
2021/12/08 08:23:58;;;;;;;10.77;7.05;;;;;;;1.43;81.81;97173.56;6159919;23;20009;-93
2021/12/08 08:26:26;;;;;;;10.95;6.80;;;;;;;1.68;81.67;97220.63;6158024;23;20013;-94
2021/12/08 08:28:52;;;;;;;9.05;6.45;;;;;;;1.48;81.63;97188.63;6158971;23;20013;-94
2021/12/08 08:31:23;;;;;;;7.70;6.47;;;;;;;1.09;81.56;97124.47;6137043;23;20035;-93
2021/12/08 08:33:53;;;;;;;7.93;6.40;;;;;;;1.12;81.69;97129.28;6130308;23;20052;-92
2021/12/08 08:36:26;;;;;;;8.02;5.63;;;;;;;1.79;81.30;97247.91;6170366;23;20005;-92
2021/12/08 08:39:20;;;;;;;9.05;6.97;;;;;;;1.42;81.86;97161.44;6162584;23;19997;-90
2021/12/08 08:41:59;;;;;;;8.25;6.40;;;;;;;2.16;81.84;97276.28;6135890;23;20024;-91
2021/12/08 08:44:45;;;;;;;10.50;6.50;;;;;;;1.47;82.06;97174.69;6139613;23;20005;-93
2021/12/08 08:47:16;;;;;;;8.27;6.80;;;;;;;2.10;81.99;97271.16;6150714;23;20013;-92
2021/12/08 08:50:00;;;;;;;11.82;6.78;;;;;;;1.47;81.75;97198.34;6153159;23;20008;-91
2021/12/08 08:52:36;;;;;;;9.65;6.78;;;;;;;0.97;81.65;97100.06;6137023;23;20053;-91
2021/12/08 08:55:05;;;;;;;;;;;;;;;2.20;81.89;97313.47;6113148;23;20083;-91
2021/12/08 08:57:37;;;;;;;7.85;6.60;;;;;;;1.87;81.78;97273.84;6161116;23;19915;-91
2021/12/08 09:00:17;;;;;;;9.10;6.68;;;;;;;1.92;82.05;97256.31;6160735;23;20001;-92
2021/12/08 09:02:43;;;;;;;7.03;6.32;;;;;;;1.13;81.94;97125.63;6160616;23;20320;-92
2021/12/08 09:05:17;;;;;;;9.60;6.82;;;;;;;2.20;81.95;97292.44;6162015;23;20001;-92
2021/12/08 09:07:46;;;;;;;10.38;6.63;;;;;;;1.57;82.22;97199.59;6137911;23;20013;-92
2021/12/08 09:10:18;;;;;;;9.15;6.20;;;;;;;1.93;82.46;97273.72;6169002;23;20625;-91
2021/12/08 09:12:54;;;;;;;7.88;6.82;;;;;;;1.01;81.89;97137.16;6167071;23;20005;-91
2021/12/08 09:15:26;;;;;;;;;;;;;;;2.25;82.43;97319.63;6138546;23;20016;-91
2021/12/08 09:17:56;;;;;;;8.82;6.45;;;;;;;1.28;82.53;97154.03;6158516;23;19904;-91
2021/12/08 09:20:24;;;;;;;9.00;6.13;;;;;;;1.93;81.97;97252.69;6132361;23;20444;-90
2021/12/08 09:22:57;;;;;;;8.73;6.43;;;;;;;2.22;82.30;97296.44;6159449;23;20013;-90
2021/12/08 09:25:32;;;;;;;10.68;7.10;;;;;;;2.07;82.73;97266.38;6157525;23;20005;-90
2021/12/08 09:28:09;;;;;;;7.60;6.45;;;;;;;1.72;82.27;97198.06;6131570;23;20016;-92
2021/12/08 09:30:43;;;;;;;8.68;6.22;;;;;;;1.59;82.03;97160.72;6128654;23;20064;-91
2021/12/08 09:33:17;;;;;;;9.07;6.05;;;;;;;1.99;82.35;97227.25;6129517;23;20005;-90
2021/12/08 09:35:43;;;;;;;10.60;6.97;;;;;;;2.39;82.20;97291.22;6112039;23;20009;-90
2021/12/08 09:38:19;;;;;;;8.68;6.55;;;;;;;2.25;82.19;97284.59;6160232;23;20102;-91
2021/12/08 09:40:59;;;;;;;8.63;6.63;;;;;;;2.18;82.64;97270.81;6160224;23;20589;-91
2021/12/08 09:43:29;;;;;;;9.13;6.75;;;;;;;2.07;82.37;97240.06;6160294;23;20416;-91
2021/12/08 09:45:59;;;;;;;7.28;6.50;;;;;;;1.53;82.37;97154.56;6136011;23;20092;-90
2021/12/08 09:48:29;;;;;;;8.65;6.32;;;;;;;2.39;82.52;97291.22;6159337;23;20482;-91
2021/12/08 09:50:57;;;;;;;9.40;7.18;;;;;;;1.89;82.27;97209.47;6136196;23;20035;-91
2021/12/08 09:53:24;;;;;;;9.10;6.68;;;;;;;1.84;82.39;97192.75;6160160;23;20005;-91
2021/12/08 09:56:01;;;;;;;9.02;6.72;;;;;;;1.60;82.34;97149.16;6135473;23;20009;-92
2021/12/08 09:58:30;;;;;;;11.00;6.90;;;;;;;1.34;82.56;97088.22;6136362;23;20436;-93
2021/12/08 10:01:04;;;;;;;11.82;6.53;;;;;;;1.43;82.46;97118.38;6135711;23;20035;-91
2021/12/08 10:03:30;;;;;;;9.73;6.78;;;;;;;2.18;82.64;97247.13;6136870;23;20009;-92
2021/12/08 10:05:55;;;;;;;6.85;5.97;;;;;;;1.41;82.16;97143.28;6159951;23;20317;-93
2021/12/08 10:08:21;;;;;;;10.18;7.15;;;;;;;1.80;81.86;97200.34;6135487;23;20100;-91
2021/12/08 10:10:56;;;;;;;7.85;6.50;;;;;;;2.37;82.13;97287.22;6137166;23;20071;-90
2021/12/08 10:17:35;;;;;;;9.52;6.82;;;;;;;2.59;82.39;97314.50;6106485;23;20086;-91
2021/12/08 10:20:31;;;;;;;7.72;6.10;;;;;;;2.57;82.50;97313.94;6080026;23;20014;-91
2021/12/08 10:23:28;;;;;;;7.28;6.32;;;;;;;2.59;82.41;97310.03;6077949;23;20014;-91
2021/12/08 10:26:04;;;;;;;9.35;6.70;;;;;;;1.48;82.22;97142.13;6155709;23;20436;-93
2021/12/08 10:28:34;;;;;;;;;;;;;;;2.59;82.66;97306.59;6161328;23;20001;-89
2021/12/08 10:31:33;;;;;;;12.10;6.35;;;;;;;1.48;82.67;97136.06;6160369;23;19904;-92
2021/12/08 10:34:28;;;;;;;12.68;6.97;;;;;;;2.58;82.69;97299.75;6143230;23;20005;-91
2021/12/08 10:36:57;;;;;;;8.50;6.63;;;;;;;2.15;82.92;97222.06;6159834;23;20001;-91
2021/12/08 10:39:25;;;;;;;11.02;7.75;;;;;;;2.49;82.74;97270.34;6159727;23;19997;-91
2021/12/08 10:42:17;;;;;;;9.77;7.30;;;;;;;2.18;82.71;97220.81;6160450;23;20031;-90
2021/12/08 10:44:54;;;;;;;9.60;7.63;;;;;;;2.69;82.11;97283.06;6113400;23;20013;-87
2021/12/08 10:47:22;;;;;;;13.80;8.38;;;;;;;2.52;82.87;97275.13;6137336;23;20005;-88
2021/12/08 10:55:12;;;;;;;13.55;8.85;;;;;;;2.76;82.33;97307.44;6163724;23;20039;-87
2021/12/08 10:57:38;;;;;;;11.02;8.73;;;;;;;2.67;82.63;97301.75;6161191;23;20075;-87
2021/12/08 11:00:08;;;;;;;16.70;9.27;;;;;;;2.76;82.25;97302.97;6159937;23;20028;-87
2021/12/08 11:02:51;;;;;;;12.95;9.73;;;;;;;2.78;82.31;97306.16;6159999;23;20009;-87
2021/12/08 11:05:25;;;;;;;12.82;9.23;;;;;;;2.77;82.42;97312.47;6159800;23;20084;-86
2021/12/08 11:08:08;;;;;;;15.77;9.85;;;;;;;2.77;82.42;97306.41;6159184;23;20013;-86
2021/12/08 11:10:46;;;;;;;15.60;9.75;;;;;;;2.80;82.42;97301.44;6186040;23;20032;-86
2021/12/08 11:13:19;;;;;;;11.30;8.60;;;;;;;2.75;82.35;97300.56;6158258;23;20019;-87
2021/12/08 11:15:45;;;;;;;13.15;7.95;;;;;;;2.69;82.88;97293.59;6158632;23;20424;-86
2021/12/08 11:18:22;;;;;;;9.77;7.63;;;;;;;2.81;82.63;97315.44;6133725;23;20013;-86
2021/12/08 11:20:47;;;;;;;10.52;8.45;;;;;;;2.82;82.41;97317.00;6133293;23;20004;-86
2021/12/08 11:23:17;;;;;;;8.90;7.65;;;;;;;2.83;82.44;97332.59;6158200;23;20019;-85
2021/12/08 11:25:47;;;;;;;9.88;7.45;;;;;;;2.68;82.38;97290.19;6158841;23;20028;-86
2021/12/08 11:28:30;;;;;;;7.97;6.78;;;;;;;2.68;82.20;97299.91;6157792;23;20084;-87
2021/12/08 11:31:13;;;;;;;10.95;8.43;;;;;;;2.82;82.35;97315.19;6134903;23;20027;-83
2021/12/08 11:33:47;;;;;;;11.95;8.15;;;;;;;2.75;81.99;97296.09;6138986;23;20071;-86
2021/12/08 11:36:20;;;;;;;9.98;6.90;;;;;;;2.89;82.47;97315.84;6189050;23;20128;-86
2021/12/08 11:38:48;;;;;;;9.65;6.88;;;;;;;2.76;82.30;97286.34;6138570;23;20001;-86
2021/12/08 11:41:48;;;;;;;11.90;7.13;;;;;;;2.92;82.28;97299.56;6167024;23;20085;-86
2021/12/08 11:44:23;;;;;;;14.57;8.60;;;;;;;2.94;82.00;97302.78;6193286;23;20467;-86
2021/12/08 11:46:52;;;;;;;10.10;7.40;;;;;;;2.87;82.36;97296.84;6181605;23;20039;-87
2021/12/08 11:49:21;;;;;;;13.50;7.13;;;;;;;2.97;82.26;97312.03;6165815;23;20134;-87
2021/12/08 11:51:46;;;;;;;8.98;7.18;;;;;;;2.97;82.27;97294.38;6141746;23;20078;-86
2021/12/08 11:54:36;;;;;;;12.02;8.30;;;;;;;2.98;82.55;97282.00;6165449;23;20009;-86
2021/12/08 11:57:30;;;;;;;8.93;7.20;;;;;;;2.99;82.28;97275.72;6163862;23;20005;-85
2021/12/08 12:00:23;;;;;;;9.05;7.32;;;;;;;2.99;82.02;97288.88;6193082;23;20005;-85
2021/12/08 12:02:55;;;;;;;8.82;7.57;;;;;;;3.04;82.07;97296.84;6170904;23;20016;-85
2021/12/08 12:05:24;;;;;;;10.23;7.93;;;;;;;2.95;82.24;97275.38;6197853;23;20036;-84
2021/12/08 12:07:50;;;;;;;10.05;7.82;;;;;;;3.12;82.06;97295.66;6146056;23;20064;-85
2021/12/08 12:10:18;;;;;;;13.88;8.32;;;;;;;3.14;82.28;97277.78;6146288;23;20028;-85
2021/12/08 12:12:47;;;;;;;9.60;8.18;;;;;;;3.08;81.86;97263.72;6121216;23;20008;-85
2021/12/08 12:15:17;;;;;;;12.77;8.85;;;;;;;3.11;82.06;97263.25;6197067;23;20344;-85
2021/12/08 12:17:44;;;;;;;10.88;8.95;;;;;;;3.28;82.16;97276.41;6195990;23;20001;-85
2021/12/08 12:20:16;;;;;;;9.13;7.90;;;;;;;3.30;81.83;97272.50;6170183;23;20063;-85
2021/12/08 12:23:10;;;;;;;9.90;8.25;;;;;;;3.30;81.75;97274.34;6145099;23;20040;-85
2021/12/08 12:25:57;;;;;;;9.73;8.68;;;;;;;3.38;81.61;97284.50;6169343;23;20067;-85
2021/12/08 12:28:49;;;;;;;8.98;7.70;;;;;;;3.41;81.14;97278.72;6195372;23;20028;-85
2021/12/08 12:31:40;;;;;;;13.90;7.93;;;;;;;3.43;80.88;97268.75;6169161;23;20410;-85
2021/12/08 12:34:26;;;;;;;8.48;6.97;;;;;;;3.50;80.16;97272.00;6196191;23;20001;-85
2021/12/08 12:36:53;;;;;;;15.00;8.30;;;;;;;3.37;80.58;97246.78;6168727;23;20008;-87
2021/12/08 12:39:27;;;;;;;13.18;8.25;;;;;;;3.49;81.18;97265.94;6120076;23;20031;-86
2021/12/08 12:42:12;;;;;;;11.68;7.43;;;;;;;3.47;80.81;97257.44;6170480;23;20009;-85
2021/12/08 12:44:40;;;;;;;11.02;8.27;;;;;;;3.45;81.12;97264.81;6166313;23;20731;-86
2021/12/08 12:47:23;;;;;;;10.88;7.90;;;;;;;3.45;80.92;97256.13;6116066;23;20016;-86
2021/12/08 12:50:08;;;;;;;12.65;7.95;;;;;;;3.43;81.20;97258.22;6163366;23;20013;-86
2021/12/08 12:52:57;;;;;;;27.25;9.68;;;;;;;3.40;81.28;97261.31;6189767;23;20011;-85
2021/12/08 12:55:29;;;;;;;30.67;9.07;;;;;;;3.34;81.24;97273.59;6188518;23;20069;-84